createdAt,value
2023-04-19T00:01:30.279Z,92.60
2023-04-19T00:03:57.187Z,93.00
2023-04-19T00:06:24.623Z,93.60
2023-04-19T00:08:51.628Z,93.50
2023-04-19T00:11:18.350Z,93.40
2023-04-19T00:13:45.062Z,93.60
2023-04-19T00:16:11.809Z,93.40
2023-04-19T00:18:38.681Z,93.20
2023-04-19T00:21:06.126Z,93.10
2023-04-19T00:23:32.803Z,93.00
2023-04-19T00:26:02.180Z,92.70
2023-04-19T00:28:28.853Z,92.70
2023-04-19T00:30:55.601Z,92.70
2023-04-19T00:33:22.360Z,92.60
2023-04-19T00:35:49.551Z,92.60
2023-04-19T00:38:16.310Z,92.50
2023-04-19T00:40:44.891Z,92.70
2023-04-19T00:43:11.906Z,92.70
2023-04-19T00:45:40.837Z,92.70
2023-04-19T00:48:08.181Z,92.70
2023-04-19T00:50:36.153Z,92.80
2023-04-19T00:53:03.289Z,92.70
2023-04-19T00:55:30.729Z,92.70
2023-04-19T00:57:58.024Z,92.50
2023-04-19T01:00:24.690Z,92.90
2023-04-19T01:02:51.617Z,92.70
2023-04-19T01:05:19.071Z,93.10
2023-04-19T01:07:45.990Z,93.10
2023-04-19T01:10:15.289Z,93.20
2023-04-19T01:12:41.980Z,93.40
2023-04-19T01:15:11.259Z,93.60
2023-04-19T01:17:38.633Z,93.90
2023-04-19T01:20:09.164Z,93.90
2023-04-19T01:22:37.626Z,94.20
2023-04-19T01:25:05.394Z,94.10
2023-04-19T01:27:32.121Z,94.00
2023-04-19T01:29:58.974Z,94.30
2023-04-19T01:32:26.949Z,94.30
2023-04-19T01:34:55.946Z,94.20
2023-04-19T01:37:22.772Z,93.80
2023-04-19T01:39:49.470Z,94.00
2023-04-19T01:42:16.123Z,94.10
2023-04-19T01:44:42.831Z,93.70
2023-04-19T01:47:09.826Z,93.50
2023-04-19T01:49:36.730Z,93.20
2023-04-19T01:52:03.489Z,93.00
2023-04-19T01:54:30.206Z,93.50
2023-04-19T01:56:57.050Z,94.40
2023-04-19T01:59:23.765Z,94.90
2023-04-19T02:01:51.073Z,95.20
2023-04-19T02:04:22.104Z,95.40
2023-04-19T02:06:48.930Z,95.60
2023-04-19T02:09:16.029Z,95.50
2023-04-19T02:11:45.486Z,95.40
2023-04-19T02:14:12.174Z,95.20
2023-04-19T02:16:38.849Z,95.10
2023-04-19T02:19:06.909Z,95.00
2023-04-19T02:21:33.587Z,95.50
2023-04-19T02:24:01.089Z,95.80
2023-04-19T02:26:27.853Z,96.30
2023-04-19T02:28:54.813Z,96.90
2023-04-19T02:31:21.942Z,97.20
2023-04-19T02:33:48.669Z,97.00
2023-04-19T02:36:15.554Z,96.90
2023-04-19T02:38:42.310Z,96.90
2023-04-19T02:41:08.973Z,96.90
2023-04-19T02:43:39.217Z,96.90
2023-04-19T02:46:06.392Z,97.10
2023-04-19T02:48:33.168Z,97.20
2023-04-19T02:50:59.874Z,97.60
2023-04-19T02:53:27.283Z,98.00
2023-04-19T02:55:54.023Z,98.30
2023-04-19T02:58:20.933Z,98.30
2023-04-19T03:01:04.056Z,98.30
2023-04-19T03:03:30.890Z,98.10
2023-04-19T03:05:58.030Z,97.90
2023-04-19T03:08:25.305Z,97.90
2023-04-19T03:10:52.027Z,98.10
2023-04-19T03:13:18.750Z,98.20
2023-04-19T03:15:45.590Z,98.30
2023-04-19T03:18:12.349Z,98.00
2023-04-19T03:20:41.977Z,97.60
2023-04-19T03:23:08.769Z,97.10
2023-04-19T03:25:35.432Z,96.80
2023-04-19T03:28:16.466Z,96.60
2023-04-19T03:31:06.025Z,96.80
2023-04-19T03:33:32.790Z,96.70
2023-04-19T03:35:59.539Z,96.80
2023-04-19T03:38:26.388Z,97.00
2023-04-19T03:40:53.519Z,96.70
2023-04-19T03:43:20.792Z,96.40
2023-04-19T03:45:47.920Z,96.50
2023-04-19T03:48:14.841Z,96.30
2023-04-19T03:50:41.589Z,96.40
2023-04-19T03:53:11.921Z,96.00
2023-04-19T03:55:39.004Z,96.00
2023-04-19T03:58:06.343Z,95.90
2023-04-19T04:00:47.724Z,95.90
2023-04-19T04:03:15.389Z,95.90
2023-04-19T04:05:42.438Z,96.10
2023-04-19T04:08:09.726Z,95.90
2023-04-19T04:10:36.388Z,95.70
2023-04-19T04:13:03.163Z,96.10
2023-04-19T04:15:44.443Z,96.40
2023-04-19T04:18:12.748Z,96.50
2023-04-19T04:20:39.523Z,96.50
2023-04-19T04:23:10.777Z,96.50
2023-04-19T04:25:40.696Z,96.30
2023-04-19T04:28:11.528Z,96.30
2023-04-19T04:30:40.562Z,96.70
2023-04-19T04:33:11.846Z,96.60
2023-04-19T04:35:39.742Z,96.80
2023-04-19T04:38:21.584Z,96.70
2023-04-19T04:40:55.269Z,96.60
2023-04-19T04:43:23.974Z,96.90
2023-04-19T04:45:50.741Z,96.70
2023-04-19T04:48:18.051Z,96.60
2023-04-19T04:50:44.816Z,96.90
2023-04-19T04:53:14.565Z,96.90
2023-04-19T04:55:43.508Z,97.00
2023-04-19T04:58:11.752Z,97.30
2023-04-19T05:00:50.398Z,97.20
2023-04-19T05:03:17.596Z,97.40
2023-04-19T05:05:49.734Z,97.40
2023-04-19T05:08:17.196Z,97.50
2023-04-19T05:10:44.703Z,97.60
2023-04-19T05:13:12.781Z,97.70
2023-04-19T05:15:40.412Z,97.70
2023-04-19T05:18:08.396Z,97.60
2023-04-19T05:20:35.183Z,97.70
2023-04-19T05:23:08.197Z,97.50
2023-04-19T05:25:35.065Z,97.50
2023-04-19T05:28:03.437Z,97.50
2023-04-19T05:30:37.266Z,97.40
2023-04-19T05:33:05.278Z,97.70
2023-04-19T05:35:32.271Z,97.80
2023-04-19T05:37:59.046Z,97.70
2023-04-19T05:40:25.870Z,97.50
2023-04-19T05:42:52.949Z,97.60
2023-04-19T05:45:19.697Z,97.30
2023-04-19T05:47:46.384Z,97.20
2023-04-19T05:50:32.134Z,97.20
2023-04-19T05:53:17.546Z,97.00
2023-04-19T05:55:45.580Z,96.70
2023-04-19T05:58:12.265Z,96.90
2023-04-19T06:00:39.032Z,97.20
2023-04-19T06:03:12.022Z,97.60
2023-04-19T06:05:40.326Z,97.30
2023-04-19T06:08:07.147Z,97.20
2023-04-19T06:10:49.019Z,96.90
2023-04-19T06:13:19.887Z,97.00
2023-04-19T06:15:48.110Z,97.20
2023-04-19T06:18:19.810Z,97.10
2023-04-19T06:20:47.265Z,97.40
2023-04-19T06:23:14.892Z,97.10
2023-04-19T06:25:41.853Z,96.80
2023-04-19T06:28:08.547Z,96.60
2023-04-19T06:30:35.542Z,96.50
2023-04-19T06:33:02.467Z,96.70
2023-04-19T06:35:29.214Z,97.20
2023-04-19T06:37:56.046Z,97.20
2023-04-19T06:40:22.981Z,97.50
2023-04-19T06:42:49.872Z,97.40
2023-04-19T06:45:16.687Z,97.20
2023-04-19T06:47:43.399Z,97.30
2023-04-19T06:50:11.000Z,96.80
2023-04-19T06:52:38.095Z,96.40
2023-04-19T06:55:06.884Z,96.30
2023-04-19T06:57:33.620Z,96.30
2023-04-19T07:00:00.438Z,96.10
2023-04-19T07:02:27.284Z,96.20
2023-04-19T07:04:54.164Z,96.50
2023-04-19T07:07:20.914Z,96.70
2023-04-19T07:09:47.610Z,96.50
2023-04-19T07:12:15.260Z,96.60
2023-04-19T07:14:41.935Z,96.30
2023-04-19T07:17:08.649Z,96.30
2023-04-19T07:19:36.178Z,96.70
2023-04-19T07:22:03.475Z,96.90
2023-04-19T07:24:30.390Z,96.30
2023-04-19T07:26:57.628Z,95.90
2023-04-19T07:29:24.326Z,95.90
2023-04-19T07:31:51.078Z,95.80
2023-04-19T07:34:18.198Z,95.60
2023-04-19T07:36:45.345Z,95.70
2023-04-19T07:39:13.135Z,95.50
2023-04-19T07:41:40.103Z,95.20
2023-04-19T07:44:06.815Z,95.10
2023-04-19T07:46:33.566Z,95.20
2023-04-19T07:49:00.322Z,95.40
2023-04-19T07:51:27.466Z,95.40
2023-04-19T07:53:54.202Z,95.50
2023-04-19T07:56:22.715Z,95.70
2023-04-19T07:59:04.237Z,95.40
2023-04-19T08:01:34.205Z,94.90
2023-04-19T08:04:01.230Z,94.70
2023-04-19T08:06:29.686Z,94.70
2023-04-19T08:08:56.800Z,94.40
2023-04-19T08:11:24.986Z,94.60
2023-04-19T08:14:04.538Z,94.70
2023-04-19T08:19:05.952Z,94.60
2023-04-19T08:21:40.441Z,94.30
2023-04-19T08:24:08.420Z,94.30
2023-04-19T08:26:35.422Z,94.20
2023-04-19T08:29:02.161Z,93.50
2023-04-19T08:31:29.269Z,93.50
2023-04-19T08:33:56.914Z,93.00
2023-04-19T08:36:36.900Z,93.00
2023-04-19T08:39:14.818Z,92.60
2023-04-19T08:41:59.069Z,92.30
2023-04-19T08:44:36.655Z,92.00
2023-04-19T08:47:04.630Z,92.00
2023-04-19T08:49:35.409Z,92.10
2023-04-19T08:52:02.989Z,92.30
2023-04-19T08:54:30.172Z,92.50
2023-04-19T08:57:00.554Z,92.60
2023-04-19T08:59:28.673Z,92.60
2023-04-19T09:01:56.331Z,92.60
2023-04-19T09:04:36.467Z,93.00
2023-04-19T09:07:04.517Z,93.20
2023-04-19T09:09:37.153Z,93.20
2023-04-19T09:12:20.310Z,92.80
2023-04-19T09:15:00.512Z,93.10
2023-04-19T09:17:29.398Z,93.40
2023-04-19T09:19:56.114Z,93.30
2023-04-19T09:22:22.914Z,92.70
2023-04-19T09:27:27.165Z,92.50
2023-04-19T09:29:59.660Z,92.70
2023-04-19T09:32:27.494Z,92.30
2023-04-19T09:34:59.279Z,92.60
2023-04-19T09:39:56.409Z,93.20
2023-04-19T09:42:42.336Z,93.60
2023-04-19T09:45:28.582Z,93.20
2023-04-19T09:48:05.792Z,93.20
2023-04-19T09:50:34.174Z,93.00
2023-04-19T09:53:06.466Z,93.50
2023-04-19T09:55:48.901Z,93.70
2023-04-19T09:58:25.061Z,93.50
2023-04-19T10:01:06.626Z,93.60
2023-04-19T10:03:40.775Z,93.60
2023-04-19T10:06:10.916Z,94.00
2023-04-19T10:08:43.503Z,93.90
2023-04-19T10:11:11.557Z,94.20
2023-04-19T10:13:38.779Z,93.70
2023-04-19T10:16:18.147Z,93.40
2023-04-19T10:18:46.227Z,93.70
2023-04-19T10:21:13.880Z,92.40
2023-04-19T10:23:40.821Z,93.10
2023-04-19T10:26:07.855Z,93.40
2023-04-19T10:28:35.974Z,93.40
2023-04-19T10:31:04.574Z,92.80
2023-04-19T10:33:35.582Z,92.80
2023-04-19T10:36:02.758Z,92.80
2023-04-19T10:38:37.080Z,93.10
2023-04-19T10:41:05.335Z,92.80
2023-04-19T10:43:34.223Z,92.10
2023-04-19T10:46:36.411Z,91.80
2023-04-19T10:49:05.797Z,92.00
2023-04-19T10:51:38.582Z,91.90
2023-04-19T10:54:07.149Z,91.90
2023-04-19T10:56:33.998Z,91.60
2023-04-19T10:59:12.521Z,91.30
2023-04-19T11:01:43.588Z,91.70
2023-04-19T11:04:15.604Z,91.50
2023-04-19T11:06:54.163Z,91.10
2023-04-19T11:09:35.511Z,91.00
2023-04-19T11:12:04.027Z,90.80
2023-04-19T11:14:33.912Z,90.30
2023-04-19T11:17:02.905Z,90.20
2023-04-19T11:19:29.728Z,89.80
2023-04-19T11:21:59.369Z,89.30
2023-04-19T11:24:26.084Z,89.20
2023-04-19T11:26:55.269Z,89.00
2023-04-19T11:29:22.280Z,89.00
2023-04-19T11:31:49.038Z,88.90
2023-04-19T11:34:16.014Z,88.70
2023-04-19T11:36:53.268Z,88.50
2023-04-19T11:39:21.314Z,88.80
2023-04-19T11:41:48.169Z,88.80
2023-04-19T11:44:15.640Z,88.20
2023-04-19T11:46:43.025Z,87.50
2023-04-19T11:49:09.807Z,87.20
2023-04-19T11:51:42.375Z,87.10
2023-04-19T11:54:17.010Z,87.00
2023-04-19T11:57:05.099Z,87.10
2023-04-19T11:59:33.507Z,86.70
2023-04-19T12:02:11.180Z,86.40
2023-04-19T12:04:39.051Z,86.30
2023-04-19T12:07:06.995Z,86.30
2023-04-19T12:09:35.477Z,86.40
2023-04-19T12:12:03.036Z,86.90
2023-04-19T12:14:31.451Z,87.10
2023-04-19T12:17:08.915Z,86.60
2023-04-19T12:19:37.985Z,87.00
2023-04-19T12:22:09.229Z,87.30
2023-04-19T12:24:35.854Z,87.60
2023-04-19T12:27:02.549Z,85.70
2023-04-19T12:29:30.565Z,84.00
2023-04-19T12:31:57.311Z,83.60
2023-04-19T12:34:24.069Z,82.70
2023-04-19T12:36:50.695Z,82.10
2023-04-19T12:39:17.720Z,81.10
2023-04-19T12:41:44.498Z,81.10
2023-04-19T12:44:11.177Z,81.90
2023-04-19T12:46:37.928Z,81.00
2023-04-19T12:49:04.748Z,81.10
2023-04-19T12:51:31.770Z,80.40
2023-04-19T12:53:58.739Z,79.60
2023-04-19T12:56:25.581Z,79.50
2023-04-19T12:58:52.926Z,78.00
2023-04-19T13:01:19.612Z,77.50
2023-04-19T13:03:46.471Z,76.80
2023-04-19T13:06:15.402Z,77.30
2023-04-19T13:08:46.993Z,77.00
2023-04-19T13:11:14.854Z,77.20
2023-04-19T13:13:41.478Z,76.00
2023-04-19T13:16:08.306Z,76.80
2023-04-19T13:18:35.226Z,76.70
2023-04-19T13:21:01.923Z,76.00
2023-04-19T13:23:28.626Z,76.50
2023-04-19T13:25:55.357Z,76.30
2023-04-19T13:28:22.029Z,76.00
2023-04-19T13:30:49.006Z,77.20
2023-04-19T13:33:16.023Z,77.90
2023-04-19T13:35:44.937Z,77.70
2023-04-19T13:38:11.663Z,75.60
2023-04-19T13:40:38.498Z,75.70
2023-04-19T13:43:05.363Z,74.80
2023-04-19T13:45:32.420Z,74.90
2023-04-19T13:47:59.208Z,74.80
2023-04-19T13:50:25.913Z,73.60
2023-04-19T13:52:52.678Z,72.40
2023-04-19T13:55:19.424Z,72.80
2023-04-19T13:57:46.192Z,71.10
2023-04-19T14:00:13.380Z,72.30
2023-04-19T14:02:40.359Z,73.10
2023-04-19T14:05:07.527Z,72.30
2023-04-19T14:07:34.188Z,71.50
2023-04-19T14:10:00.981Z,71.50
2023-04-19T14:12:27.680Z,71.70
2023-04-19T14:14:54.352Z,72.30
2023-04-19T14:17:21.093Z,72.20
2023-04-19T14:19:47.721Z,72.70
2023-04-19T14:22:18.192Z,71.00
2023-04-19T14:24:46.247Z,69.40
2023-04-19T14:27:13.021Z,69.30
2023-04-19T14:29:39.821Z,68.40
2023-04-19T14:32:21.369Z,69.00
2023-04-19T14:34:53.265Z,67.70
2023-04-19T14:37:22.046Z,67.30
2023-04-19T14:39:48.727Z,67.00
2023-04-19T14:42:15.578Z,67.00
2023-04-19T14:44:42.252Z,66.90
2023-04-19T14:47:08.901Z,66.40
2023-04-19T14:49:35.677Z,66.40
2023-04-19T14:52:03.935Z,66.80
2023-04-19T14:54:30.838Z,66.70
2023-04-19T14:56:57.531Z,64.90
2023-04-19T14:59:24.190Z,66.10
2023-04-19T15:01:50.966Z,65.00
2023-04-19T15:04:17.969Z,65.60
2023-04-19T15:06:44.941Z,65.10
2023-04-19T15:09:11.647Z,64.60
2023-04-19T15:11:38.345Z,65.20
2023-04-19T15:14:05.544Z,65.60
2023-04-19T15:16:32.419Z,65.40
2023-04-19T15:18:59.105Z,63.40
2023-04-19T15:21:26.049Z,63.60
2023-04-19T15:23:52.711Z,63.90
2023-04-19T15:26:19.375Z,64.00
2023-04-19T15:28:46.066Z,63.20
2023-04-19T15:31:12.867Z,62.90
2023-04-19T15:33:39.581Z,63.00
2023-04-19T15:36:06.574Z,64.20
2023-04-19T15:38:33.378Z,64.20
2023-04-19T15:41:01.343Z,64.20
2023-04-19T15:43:28.279Z,64.10
2023-04-19T15:45:55.429Z,63.40
2023-04-19T15:48:22.130Z,63.50
2023-04-19T15:50:48.969Z,63.70
2023-04-19T15:53:16.308Z,63.20
2023-04-19T15:55:43.176Z,64.40
2023-04-19T15:58:09.850Z,64.40
2023-04-19T16:00:36.465Z,64.10
2023-04-19T16:03:03.273Z,64.80
2023-04-19T16:05:30.120Z,64.60
2023-04-19T16:08:08.925Z,64.20
2023-04-19T16:10:36.820Z,64.50
2023-04-19T16:13:04.726Z,64.30
2023-04-19T16:15:32.600Z,64.30
2023-04-19T16:17:59.344Z,64.30
2023-04-19T16:20:26.065Z,64.40
2023-04-19T16:22:52.785Z,64.70
2023-04-19T16:25:19.472Z,65.10
2023-04-19T16:27:46.925Z,65.50
2023-04-19T16:30:15.514Z,65.80
2023-04-19T16:32:43.019Z,66.00
2023-04-19T16:35:10.379Z,66.00
2023-04-19T16:37:37.473Z,66.00
2023-04-19T16:40:09.714Z,66.20
2023-04-19T16:42:38.162Z,66.70
2023-04-19T16:45:06.283Z,66.40
2023-04-19T16:47:34.007Z,66.20
2023-04-19T16:50:01.525Z,66.30
2023-04-19T16:52:31.154Z,66.30
2023-04-19T16:54:59.981Z,66.60
2023-04-19T16:57:26.812Z,67.00
2023-04-19T16:59:53.534Z,67.10
2023-04-19T17:02:20.349Z,67.40
2023-04-19T17:04:47.428Z,68.20
2023-04-19T17:07:14.190Z,68.20
2023-04-19T17:09:40.817Z,68.50
2023-04-19T17:12:07.609Z,68.30
2023-04-19T17:14:35.219Z,68.50
2023-04-19T17:17:02.365Z,68.80
2023-04-19T17:19:29.133Z,68.60
2023-04-19T17:21:55.947Z,68.50
2023-04-19T17:24:22.693Z,69.00
2023-04-19T17:26:49.969Z,69.30
2023-04-19T17:29:16.949Z,69.70
2023-04-19T17:31:43.927Z,70.60
2023-04-19T17:34:10.975Z,70.30
2023-04-19T17:36:37.630Z,70.50
2023-04-19T17:39:06.528Z,70.40
2023-04-19T17:41:33.752Z,70.60
2023-04-19T17:44:00.451Z,70.50
2023-04-19T17:46:27.187Z,70.90
2023-04-19T17:48:55.351Z,71.10
2023-04-19T17:51:22.082Z,71.40
2023-04-19T17:53:48.743Z,71.30
2023-04-19T17:56:15.450Z,71.10
2023-04-19T17:58:42.272Z,71.00
2023-04-19T18:01:10.239Z,71.50
2023-04-19T18:03:37.470Z,71.70
2023-04-19T18:06:04.306Z,71.60
2023-04-19T18:08:31.054Z,71.70
2023-04-19T18:10:57.688Z,72.10
2023-04-19T18:13:24.454Z,72.60
2023-04-19T18:15:51.100Z,72.80
2023-04-19T18:18:17.922Z,72.50
2023-04-19T18:20:44.568Z,72.60
2023-04-19T18:23:11.355Z,72.30
2023-04-19T18:25:38.278Z,72.80
2023-04-19T18:28:06.384Z,73.00
2023-04-19T18:30:33.677Z,72.80
2023-04-19T18:33:00.384Z,73.50
2023-04-19T18:35:27.081Z,73.80
2023-04-19T18:37:53.871Z,74.00
2023-04-19T18:40:20.627Z,73.90
2023-04-19T18:42:47.313Z,73.90
2023-04-19T18:45:14.461Z,73.90
2023-04-19T18:47:41.910Z,73.70
2023-04-19T18:50:09.291Z,73.80
2023-04-19T18:52:36.658Z,74.10
2023-04-19T18:55:05.077Z,74.80
2023-04-19T18:57:34.558Z,74.90
2023-04-19T19:00:02.634Z,75.40
2023-04-19T19:02:29.506Z,75.80
2023-04-19T19:05:01.202Z,76.40
2023-04-19T19:10:01.540Z,76.60
2023-04-19T19:12:30.680Z,76.90
2023-04-19T19:14:57.506Z,77.30
2023-04-19T19:17:27.797Z,76.90
2023-04-19T19:19:55.021Z,76.80
2023-04-19T19:22:28.477Z,77.30
2023-04-19T19:24:55.735Z,77.60
2023-04-19T19:27:22.439Z,77.90
2023-04-19T19:29:49.103Z,78.00
2023-04-19T19:32:15.967Z,78.10
2023-04-19T19:34:53.982Z,78.40
2023-04-19T19:37:21.979Z,78.40
2023-04-19T19:39:48.652Z,78.80
2023-04-19T19:42:18.882Z,79.30
2023-04-19T19:44:45.750Z,79.40
2023-04-19T19:47:12.901Z,79.60
2023-04-19T19:52:09.294Z,80.30
2023-04-19T19:54:36.041Z,80.50
2023-04-19T19:59:34.761Z,80.70
2023-04-19T20:02:03.418Z,81.20
2023-04-19T20:04:31.098Z,81.40
2023-04-19T20:07:28.555Z,81.20
2023-04-19T20:09:45.174Z,81.40
2023-04-19T20:12:13.453Z,81.40
2023-04-19T20:14:40.484Z,81.50
2023-04-19T20:17:07.541Z,81.40
2023-04-19T20:19:35.714Z,81.40
2023-04-19T20:22:02.420Z,81.40
2023-04-19T20:24:29.737Z,81.10
2023-04-19T20:26:57.357Z,81.20
2023-04-19T20:29:24.182Z,81.10
2023-04-19T20:31:50.949Z,81.30
2023-04-19T20:34:17.784Z,81.50
2023-04-19T20:36:46.798Z,82.20
2023-04-19T20:39:13.639Z,82.50
2023-04-19T20:41:40.384Z,82.90
2023-04-19T20:44:07.392Z,82.70
2023-04-19T20:46:37.150Z,82.10
2023-04-19T20:49:03.778Z,81.40
2023-04-19T20:51:31.568Z,81.40
2023-04-19T20:53:58.260Z,81.30
2023-04-19T20:56:25.405Z,81.60
2023-04-19T20:58:52.158Z,81.50
2023-04-19T21:01:19.949Z,82.00
2023-04-19T21:03:48.094Z,82.10
2023-04-19T21:06:15.270Z,82.20
2023-04-19T21:08:41.914Z,82.40
2023-04-19T21:11:08.592Z,82.50
2023-04-19T21:13:35.335Z,82.20
2023-04-19T21:16:02.099Z,82.10
2023-04-19T21:18:29.784Z,82.10
2023-04-19T21:20:57.787Z,82.10
2023-04-19T21:23:24.444Z,82.40
2023-04-19T21:25:51.388Z,82.50
2023-04-19T21:28:18.087Z,82.60
2023-04-19T21:30:45.061Z,83.00
2023-04-19T21:33:11.833Z,83.40
2023-04-19T21:35:38.470Z,83.50
2023-04-19T21:38:05.153Z,83.60
2023-04-19T21:40:31.845Z,83.90
2023-04-19T21:42:58.523Z,84.20
2023-04-19T21:45:25.356Z,84.30
2023-04-19T21:47:52.032Z,84.50
2023-04-19T21:50:18.808Z,84.70
2023-04-19T21:52:45.472Z,84.90
2023-04-19T21:55:12.214Z,85.00
2023-04-19T21:57:38.848Z,85.20
2023-04-19T22:00:09.162Z,85.50
2023-04-19T22:02:36.311Z,85.70
2023-04-19T22:05:03.354Z,85.70
2023-04-19T22:07:33.213Z,85.60
2023-04-19T22:10:02.799Z,85.70
2023-04-19T22:12:29.621Z,85.90
2023-04-19T22:14:56.599Z,85.80
2023-04-19T22:17:23.398Z,85.80
2023-04-19T22:19:51.403Z,86.10
2023-04-19T22:22:18.106Z,86.40
2023-04-19T22:24:56.749Z,86.40
2023-04-19T22:27:25.024Z,86.20
2023-04-19T22:29:51.740Z,86.20
2023-04-19T22:32:18.551Z,86.70
2023-04-19T22:34:45.558Z,86.80
2023-04-19T22:37:12.300Z,87.50
2023-04-19T22:39:38.921Z,87.50
2023-04-19T22:42:05.898Z,87.30
2023-04-19T22:44:32.604Z,87.30
2023-04-19T22:47:00.141Z,86.90
2023-04-19T22:49:26.874Z,87.00
2023-04-19T22:51:54.723Z,87.00
2023-04-19T22:54:21.547Z,86.80
2023-04-19T22:56:48.200Z,87.20
2023-04-19T22:59:15.290Z,88.10
2023-04-19T23:01:42.346Z,87.90
2023-04-19T23:04:13.634Z,87.80
2023-04-19T23:06:42.516Z,87.70
2023-04-19T23:09:10.941Z,88.10
2023-04-19T23:11:37.624Z,88.60
2023-04-19T23:14:04.478Z,88.30
2023-04-19T23:16:33.238Z,88.50
2023-04-19T23:19:01.011Z,88.50
2023-04-19T23:21:29.921Z,88.60
2023-04-19T23:23:56.846Z,88.50
2023-04-19T23:26:23.573Z,88.80
2023-04-19T23:28:50.424Z,88.70
2023-04-19T23:31:17.170Z,88.90
2023-04-19T23:33:43.895Z,89.00
2023-04-19T23:36:10.729Z,88.70
2023-04-19T23:38:37.384Z,88.70
2023-04-19T23:41:04.056Z,89.00
2023-04-19T23:43:31.016Z,89.20
2023-04-19T23:45:57.670Z,89.10
2023-04-19T23:48:24.312Z,88.90
2023-04-19T23:50:50.952Z,88.70
2023-04-19T23:53:17.599Z,88.50
2023-04-19T23:55:44.252Z,88.70
2023-04-19T23:58:10.895Z,89.00
